sensor_id;sensor_type;location;lat;lon;timestamp;P1;durP1;ratioP1;P2;durP2;ratioP2
4132;SDS011;2080;51.038;7.008;2023-09-19T00:01:34;325.25;;;68.95;;
4132;SDS011;2080;51.038;7.008;2023-09-19T00:03:59;340.37;;;82.17;;
4132;SDS011;2080;51.038;7.008;2023-09-19T00:06:28;319.42;;;57.75;;
4132;SDS011;2080;51.038;7.008;2023-09-19T00:08:56;310.67;;;48.03;;
4132;SDS011;2080;51.038;7.008;2023-09-19T00:11:23;402.23;;;251.48;;
4132;SDS011;2080;51.038;7.008;2023-09-19T00:13:51;452.90;;;370.98;;
4132;SDS011;2080;51.038;7.008;2023-09-19T00:16:16;363.70;;;171.95;;
4132;SDS011;2080;51.038;7.008;2023-09-19T00:18:44;385.38;;;189.68;;
4132;SDS011;2080;51.038;7.008;2023-09-19T00:21:12;452.65;;;376.77;;
4132;SDS011;2080;51.038;7.008;2023-09-19T00:23:40;452.08;;;378.90;;
4132;SDS011;2080;51.038;7.008;2023-09-19T00:26:08;453.65;;;384.85;;
4132;SDS011;2080;51.038;7.008;2023-09-19T00:28:33;454.50;;;383.57;;
4132;SDS011;2080;51.038;7.008;2023-09-19T00:31:00;385.83;;;205.40;;
4132;SDS011;2080;51.038;7.008;2023-09-19T00:33:28;460.35;;;386.05;;
4132;SDS011;2080;51.038;7.008;2023-09-19T00:35:54;317.48;;;67.32;;
4132;SDS011;2080;51.038;7.008;2023-09-19T00:38:25;299.67;;;33.87;;
4132;SDS011;2080;51.038;7.008;2023-09-19T00:40:52;431.58;;;299.00;;
4132;SDS011;2080;51.038;7.008;2023-09-19T00:43:19;315.42;;;65.85;;
4132;SDS011;2080;51.038;7.008;2023-09-19T00:45:52;334.52;;;114.05;;
4132;SDS011;2080;51.038;7.008;2023-09-19T00:48:23;314.38;;;56.00;;
4132;SDS011;2080;51.038;7.008;2023-09-19T00:50:52;320.08;;;52.53;;
4132;SDS011;2080;51.038;7.008;2023-09-19T00:53:20;346.52;;;129.05;;
4132;SDS011;2080;51.038;7.008;2023-09-19T00:55:49;388.25;;;208.45;;
4132;SDS011;2080;51.038;7.008;2023-09-19T00:58:20;319.15;;;54.03;;
4132;SDS011;2080;51.038;7.008;2023-09-19T01:00:48;309.98;;;54.28;;
4132;SDS011;2080;51.038;7.008;2023-09-19T01:03:14;340.42;;;103.28;;
4132;SDS011;2080;51.038;7.008;2023-09-19T01:05:39;319.70;;;56.30;;
4132;SDS011;2080;51.038;7.008;2023-09-19T01:08:08;318.98;;;74.03;;
4132;SDS011;2080;51.038;7.008;2023-09-19T01:10:33;315.30;;;63.28;;
4132;SDS011;2080;51.038;7.008;2023-09-19T01:13:25;316.77;;;60.42;;
4132;SDS011;2080;51.038;7.008;2023-09-19T01:30:12;395.77;;;222.68;;
4132;SDS011;2080;51.038;7.008;2023-09-19T01:32:40;381.05;;;193.13;;
4132;SDS011;2080;51.038;7.008;2023-09-19T01:35:11;384.98;;;223.45;;
4132;SDS011;2080;51.038;7.008;2023-09-19T01:37:40;347.27;;;137.52;;
4132;SDS011;2080;51.038;7.008;2023-09-19T01:40:08;332.02;;;77.60;;
4132;SDS011;2080;51.038;7.008;2023-09-19T01:42:49;322.58;;;55.83;;
4132;SDS011;2080;51.038;7.008;2023-09-19T01:45:42;320.90;;;55.25;;
4132;SDS011;2080;51.038;7.008;2023-09-19T01:50:59;415.88;;;276.10;;
4132;SDS011;2080;51.038;7.008;2023-09-19T01:53:50;382.47;;;201.67;;
4132;SDS011;2080;51.038;7.008;2023-09-19T01:56:28;321.67;;;53.40;;
4132;SDS011;2080;51.038;7.008;2023-09-19T02:00:41;323.33;;;83.97;;
4132;SDS011;2080;51.038;7.008;2023-09-19T02:03:10;419.88;;;274.88;;
4132;SDS011;2080;51.038;7.008;2023-09-19T02:05:37;299.30;;;47.97;;
4132;SDS011;2080;51.038;7.008;2023-09-19T02:08:04;310.92;;;67.55;;
4132;SDS011;2080;51.038;7.008;2023-09-19T02:10:30;363.58;;;167.65;;
4132;SDS011;2080;51.038;7.008;2023-09-19T02:12:55;288.37;;;24.47;;
4132;SDS011;2080;51.038;7.008;2023-09-19T02:15:24;301.27;;;53.40;;
4132;SDS011;2080;51.038;7.008;2023-09-19T02:17:49;454.13;;;379.37;;
4132;SDS011;2080;51.038;7.008;2023-09-19T02:20:21;336.15;;;107.15;;
4132;SDS011;2080;51.038;7.008;2023-09-19T02:23:29;300.83;;;31.45;;
4132;SDS011;2080;51.038;7.008;2023-09-19T02:25:55;289.38;;;34.33;;
4132;SDS011;2080;51.038;7.008;2023-09-19T02:28:26;454.15;;;374.38;;
4132;SDS011;2080;51.038;7.008;2023-09-19T02:30:59;285.00;;;29.27;;
4132;SDS011;2080;51.038;7.008;2023-09-19T02:33:30;306.75;;;50.85;;
4132;SDS011;2080;51.038;7.008;2023-09-19T02:35:58;296.50;;;36.50;;
4132;SDS011;2080;51.038;7.008;2023-09-19T02:38:27;299.90;;;22.80;;
4132;SDS011;2080;51.038;7.008;2023-09-19T02:40:53;369.00;;;195.40;;
4132;SDS011;2080;51.038;7.008;2023-09-19T02:43:22;329.98;;;74.72;;
4132;SDS011;2080;51.038;7.008;2023-09-19T02:45:50;296.33;;;50.25;;
4132;SDS011;2080;51.038;7.008;2023-09-19T02:48:18;337.05;;;116.25;;
4132;SDS011;2080;51.038;7.008;2023-09-19T02:50:43;303.90;;;52.37;;
4132;SDS011;2080;51.038;7.008;2023-09-19T02:53:11;308.80;;;55.90;;
4132;SDS011;2080;51.038;7.008;2023-09-19T02:55:40;340.88;;;133.43;;
4132;SDS011;2080;51.038;7.008;2023-09-19T02:58:06;375.07;;;199.67;;
4132;SDS011;2080;51.038;7.008;2023-09-19T03:00:36;336.95;;;121.00;;
4132;SDS011;2080;51.038;7.008;2023-09-19T03:03:02;337.30;;;100.97;;
4132;SDS011;2080;51.038;7.008;2023-09-19T03:05:31;341.05;;;138.35;;
4132;SDS011;2080;51.038;7.008;2023-09-19T03:07:59;308.23;;;61.55;;
4132;SDS011;2080;51.038;7.008;2023-09-19T03:10:31;323.42;;;83.55;;
4132;SDS011;2080;51.038;7.008;2023-09-19T03:12:59;346.52;;;149.55;;
4132;SDS011;2080;51.038;7.008;2023-09-19T03:15:31;320.85;;;53.97;;
4132;SDS011;2080;51.038;7.008;2023-09-19T03:17:56;323.00;;;94.10;;
4132;SDS011;2080;51.038;7.008;2023-09-19T03:20:24;291.83;;;26.37;;
4132;SDS011;2080;51.038;7.008;2023-09-19T03:22:50;328.30;;;88.43;;
4132;SDS011;2080;51.038;7.008;2023-09-19T03:25:17;366.07;;;179.67;;
4132;SDS011;2080;51.038;7.008;2023-09-19T03:27:42;294.88;;;44.42;;
4132;SDS011;2080;51.038;7.008;2023-09-19T03:30:13;448.40;;;369.35;;
4132;SDS011;2080;51.038;7.008;2023-09-19T03:32:47;458.50;;;391.20;;
4132;SDS011;2080;51.038;7.008;2023-09-19T03:35:15;314.70;;;59.00;;
4132;SDS011;2080;51.038;7.008;2023-09-19T03:37:44;440.25;;;354.33;;
4132;SDS011;2080;51.038;7.008;2023-09-19T03:40:10;460.38;;;396.63;;
4132;SDS011;2080;51.038;7.008;2023-09-19T03:42:40;445.02;;;356.08;;
4132;SDS011;2080;51.038;7.008;2023-09-19T03:45:09;406.10;;;257.42;;
4132;SDS011;2080;51.038;7.008;2023-09-19T03:47:38;429.13;;;288.75;;
4132;SDS011;2080;51.038;7.008;2023-09-19T03:50:05;334.07;;;75.10;;
4132;SDS011;2080;51.038;7.008;2023-09-19T03:52:32;338.52;;;110.50;;
4132;SDS011;2080;51.038;7.008;2023-09-19T03:54:57;305.70;;;39.35;;
4132;SDS011;2080;51.038;7.008;2023-09-19T03:57:25;336.58;;;130.18;;
4132;SDS011;2080;51.038;7.008;2023-09-19T03:59:51;442.90;;;349.50;;
4132;SDS011;2080;51.038;7.008;2023-09-19T04:02:18;436.83;;;344.43;;
4132;SDS011;2080;51.038;7.008;2023-09-19T04:04:54;419.60;;;298.88;;
4132;SDS011;2080;51.038;7.008;2023-09-19T04:07:20;308.75;;;53.95;;
4132;SDS011;2080;51.038;7.008;2023-09-19T04:12:27;378.10;;;185.55;;
4132;SDS011;2080;51.038;7.008;2023-09-19T04:14:56;361.95;;;153.90;;
4132;SDS011;2080;51.038;7.008;2023-09-19T04:17:23;327.73;;;79.30;;
4132;SDS011;2080;51.038;7.008;2023-09-19T04:19:52;443.40;;;343.03;;
4132;SDS011;2080;51.038;7.008;2023-09-19T04:22:18;426.98;;;311.05;;
4132;SDS011;2080;51.038;7.008;2023-09-19T04:24:43;444.00;;;352.93;;
4132;SDS011;2080;51.038;7.008;2023-09-19T04:27:09;360.35;;;150.00;;
4132;SDS011;2080;51.038;7.008;2023-09-19T04:29:37;415.00;;;279.52;;
4132;SDS011;2080;51.038;7.008;2023-09-19T04:32:03;388.27;;;198.37;;
4132;SDS011;2080;51.038;7.008;2023-09-19T04:34:33;390.75;;;217.18;;
4132;SDS011;2080;51.038;7.008;2023-09-19T04:36:59;350.63;;;116.95;;
4132;SDS011;2080;51.038;7.008;2023-09-19T04:39:25;403.60;;;251.65;;
4132;SDS011;2080;51.038;7.008;2023-09-19T04:41:52;366.92;;;155.02;;
4132;SDS011;2080;51.038;7.008;2023-09-19T04:44:18;370.35;;;178.23;;
4132;SDS011;2080;51.038;7.008;2023-09-19T04:46:46;339.60;;;83.95;;
4132;SDS011;2080;51.038;7.008;2023-09-19T04:49:16;440.10;;;333.58;;
4132;SDS011;2080;51.038;7.008;2023-09-19T04:51:43;334.25;;;87.55;;
4132;SDS011;2080;51.038;7.008;2023-09-19T04:54:11;424.38;;;292.63;;
4132;SDS011;2080;51.038;7.008;2023-09-19T04:56:37;443.75;;;337.33;;
4132;SDS011;2080;51.038;7.008;2023-09-19T04:59:08;446.60;;;334.55;;
4132;SDS011;2080;51.038;7.008;2023-09-19T05:01:35;425.80;;;281.63;;
4132;SDS011;2080;51.038;7.008;2023-09-19T05:04:05;443.58;;;345.05;;
4132;SDS011;2080;51.038;7.008;2023-09-19T05:06:33;440.17;;;335.77;;
4132;SDS011;2080;51.038;7.008;2023-09-19T05:08:58;418.88;;;273.67;;
4132;SDS011;2080;51.038;7.008;2023-09-19T05:11:25;453.20;;;370.42;;
4132;SDS011;2080;51.038;7.008;2023-09-19T05:13:51;449.45;;;376.98;;
4132;SDS011;2080;51.038;7.008;2023-09-19T05:16:17;450.42;;;338.95;;
4132;SDS011;2080;51.038;7.008;2023-09-19T05:18:43;450.73;;;365.90;;
4132;SDS011;2080;51.038;7.008;2023-09-19T05:21:11;449.40;;;349.40;;
4132;SDS011;2080;51.038;7.008;2023-09-19T05:23:37;421.52;;;292.23;;
4132;SDS011;2080;51.038;7.008;2023-09-19T05:26:04;451.80;;;351.83;;
4132;SDS011;2080;51.038;7.008;2023-09-19T05:28:30;439.50;;;324.37;;
4132;SDS011;2080;51.038;7.008;2023-09-19T05:31:00;420.33;;;284.10;;
4132;SDS011;2080;51.038;7.008;2023-09-19T05:33:28;447.50;;;345.35;;
4132;SDS011;2080;51.038;7.008;2023-09-19T05:35:56;295.42;;;27.98;;
4132;SDS011;2080;51.038;7.008;2023-09-19T05:38:22;303.80;;;48.30;;
4132;SDS011;2080;51.038;7.008;2023-09-19T05:40:52;293.80;;;33.42;;
4132;SDS011;2080;51.038;7.008;2023-09-19T05:43:18;411.57;;;273.80;;
4132;SDS011;2080;51.038;7.008;2023-09-19T05:45:46;312.08;;;45.00;;
4132;SDS011;2080;51.038;7.008;2023-09-19T05:48:17;311.55;;;51.00;;
4132;SDS011;2080;51.038;7.008;2023-09-19T05:50:43;311.42;;;37.25;;
4132;SDS011;2080;51.038;7.008;2023-09-19T05:53:13;347.00;;;88.20;;
4132;SDS011;2080;51.038;7.008;2023-09-19T05:55:39;329.63;;;75.68;;
4132;SDS011;2080;51.038;7.008;2023-09-19T05:58:05;320.52;;;76.00;;
4132;SDS011;2080;51.038;7.008;2023-09-19T06:00:30;326.90;;;98.47;;
4132;SDS011;2080;51.038;7.008;2023-09-19T06:02:57;350.42;;;135.52;;
4132;SDS011;2080;51.038;7.008;2023-09-19T06:05:27;363.77;;;181.05;;
4132;SDS011;2080;51.038;7.008;2023-09-19T06:07:59;365.17;;;178.60;;
4132;SDS011;2080;51.038;7.008;2023-09-19T06:10:32;365.67;;;185.10;;
4132;SDS011;2080;51.038;7.008;2023-09-19T06:13:01;382.42;;;225.77;;
4132;SDS011;2080;51.038;7.008;2023-09-19T06:15:33;383.45;;;205.57;;
4132;SDS011;2080;51.038;7.008;2023-09-19T06:18:02;411.67;;;278.83;;
4132;SDS011;2080;51.038;7.008;2023-09-19T06:20:30;390.15;;;224.05;;
4132;SDS011;2080;51.038;7.008;2023-09-19T06:22:56;364.90;;;164.73;;
4132;SDS011;2080;51.038;7.008;2023-09-19T06:25:22;413.37;;;275.97;;
4132;SDS011;2080;51.038;7.008;2023-09-19T06:27:54;436.25;;;338.45;;
4132;SDS011;2080;51.038;7.008;2023-09-19T06:30:23;404.87;;;236.43;;
4132;SDS011;2080;51.038;7.008;2023-09-19T06:32:58;329.95;;;93.10;;
4132;SDS011;2080;51.038;7.008;2023-09-19T06:35:28;372.58;;;197.00;;
4132;SDS011;2080;51.038;7.008;2023-09-19T06:37:58;512.00;;;457.98;;
4132;SDS011;2080;51.038;7.008;2023-09-19T06:40:26;465.73;;;412.00;;
4132;SDS011;2080;51.038;7.008;2023-09-19T06:42:53;376.33;;;212.25;;
4132;SDS011;2080;51.038;7.008;2023-09-19T06:45:19;461.63;;;387.40;;
4132;SDS011;2080;51.038;7.008;2023-09-19T06:50:17;372.88;;;185.70;;
4132;SDS011;2080;51.038;7.008;2023-09-19T06:52:45;381.63;;;214.43;;
4132;SDS011;2080;51.038;7.008;2023-09-19T06:55:14;368.85;;;185.88;;
4132;SDS011;2080;51.038;7.008;2023-09-19T06:57:42;511.83;;;458.63;;
4132;SDS011;2080;51.038;7.008;2023-09-19T07:00:14;364.45;;;177.85;;
4132;SDS011;2080;51.038;7.008;2023-09-19T07:05:32;375.75;;;203.40;;
4132;SDS011;2080;51.038;7.008;2023-09-19T07:08:06;380.90;;;211.75;;
4132;SDS011;2080;51.038;7.008;2023-09-19T07:10:37;375.92;;;184.77;;
4132;SDS011;2080;51.038;7.008;2023-09-19T07:13:06;375.58;;;193.80;;
4132;SDS011;2080;51.038;7.008;2023-09-19T07:15:38;424.33;;;300.50;;
4132;SDS011;2080;51.038;7.008;2023-09-19T07:18:06;392.98;;;230.77;;
4132;SDS011;2080;51.038;7.008;2023-09-19T07:20:40;413.33;;;291.02;;
4132;SDS011;2080;51.038;7.008;2023-09-19T07:23:11;342.70;;;130.55;;
4132;SDS011;2080;51.038;7.008;2023-09-19T07:25:40;373.15;;;185.68;;
4132;SDS011;2080;51.038;7.008;2023-09-19T07:28:05;526.90;;;472.07;;
4132;SDS011;2080;51.038;7.008;2023-09-19T07:30:31;378.23;;;213.07;;
4132;SDS011;2080;51.038;7.008;2023-09-19T07:32:56;388.92;;;203.38;;
4132;SDS011;2080;51.038;7.008;2023-09-19T07:35:35;342.73;;;143.60;;
4132;SDS011;2080;51.038;7.008;2023-09-19T07:38:00;408.58;;;268.27;;
4132;SDS011;2080;51.038;7.008;2023-09-19T07:40:29;366.60;;;149.50;;
4132;SDS011;2080;51.038;7.008;2023-09-19T07:42:57;350.13;;;140.55;;
4132;SDS011;2080;51.038;7.008;2023-09-19T07:45:29;412.97;;;266.03;;
4132;SDS011;2080;51.038;7.008;2023-09-19T07:47:56;363.83;;;187.57;;
4132;SDS011;2080;51.038;7.008;2023-09-19T07:53:18;406.65;;;269.92;;
4132;SDS011;2080;51.038;7.008;2023-09-19T07:55:49;435.00;;;337.87;;
4132;SDS011;2080;51.038;7.008;2023-09-19T07:58:14;365.65;;;198.55;;
4132;SDS011;2080;51.038;7.008;2023-09-19T08:00:44;403.50;;;260.48;;
4132;SDS011;2080;51.038;7.008;2023-09-19T08:03:09;419.67;;;289.20;;
4132;SDS011;2080;51.038;7.008;2023-09-19T08:05:43;371.30;;;191.83;;
4132;SDS011;2080;51.038;7.008;2023-09-19T08:08:12;332.50;;;142.13;;
4132;SDS011;2080;51.038;7.008;2023-09-19T08:10:39;366.92;;;201.70;;
4132;SDS011;2080;51.038;7.008;2023-09-19T08:13:07;403.58;;;271.90;;
4132;SDS011;2080;51.038;7.008;2023-09-19T08:15:42;387.38;;;250.93;;
4132;SDS011;2080;51.038;7.008;2023-09-19T08:18:09;397.50;;;235.93;;
4132;SDS011;2080;51.038;7.008;2023-09-19T08:20:37;382.13;;;245.48;;
4132;SDS011;2080;51.038;7.008;2023-09-19T08:23:03;318.00;;;113.18;;
4132;SDS011;2080;51.038;7.008;2023-09-19T08:25:29;419.40;;;330.58;;
4132;SDS011;2080;51.038;7.008;2023-09-19T08:27:57;324.85;;;125.05;;
4132;SDS011;2080;51.038;7.008;2023-09-19T08:30:32;325.63;;;128.10;;
4132;SDS011;2080;51.038;7.008;2023-09-19T08:32:59;290.23;;;49.45;;
4132;SDS011;2080;51.038;7.008;2023-09-19T08:37:26;318.40;;;124.93;;
4132;SDS011;2080;51.038;7.008;2023-09-19T08:39:51;344.02;;;149.07;;
4132;SDS011;2080;51.038;7.008;2023-09-19T08:42:29;309.80;;;100.35;;
4132;SDS011;2080;51.038;7.008;2023-09-19T08:44:57;320.75;;;109.32;;
4132;SDS011;2080;51.038;7.008;2023-09-19T08:47:33;327.23;;;123.57;;
4132;SDS011;2080;51.038;7.008;2023-09-19T08:50:23;277.73;;;30.97;;
4132;SDS011;2080;51.038;7.008;2023-09-19T08:52:54;270.95;;;23.98;;
4132;SDS011;2080;51.038;7.008;2023-09-19T08:55:21;274.98;;;22.50;;
4132;SDS011;2080;51.038;7.008;2023-09-19T08:58:03;265.63;;;23.67;;
4132;SDS011;2080;51.038;7.008;2023-09-19T09:00:31;280.02;;;35.78;;
4132;SDS011;2080;51.038;7.008;2023-09-19T09:02:59;267.17;;;24.38;;
4132;SDS011;2080;51.038;7.008;2023-09-19T09:05:31;274.17;;;17.17;;
4132;SDS011;2080;51.038;7.008;2023-09-19T09:08:01;276.50;;;42.33;;
4132;SDS011;2080;51.038;7.008;2023-09-19T09:12:45;274.15;;;22.10;;
4132;SDS011;2080;51.038;7.008;2023-09-19T09:15:11;272.38;;;25.70;;
4132;SDS011;2080;51.038;7.008;2023-09-19T09:17:43;259.55;;;17.50;;
4132;SDS011;2080;51.038;7.008;2023-09-19T09:20:17;270.75;;;29.45;;
4132;SDS011;2080;51.038;7.008;2023-09-19T09:23:17;292.17;;;79.93;;
4132;SDS011;2080;51.038;7.008;2023-09-19T09:25:50;262.77;;;20.80;;
4132;SDS011;2080;51.038;7.008;2023-09-19T09:28:25;267.77;;;24.52;;
4132;SDS011;2080;51.038;7.008;2023-09-19T09:30:55;354.98;;;200.10;;
4132;SDS011;2080;51.038;7.008;2023-09-19T09:33:24;270.35;;;36.53;;
4132;SDS011;2080;51.038;7.008;2023-09-19T09:35:57;259.52;;;22.77;;
4132;SDS011;2080;51.038;7.008;2023-09-19T09:38:29;316.25;;;128.57;;
4132;SDS011;2080;51.038;7.008;2023-09-19T09:41:08;269.80;;;27.85;;
4132;SDS011;2080;51.038;7.008;2023-09-19T09:43:38;268.50;;;25.90;;
4132;SDS011;2080;51.038;7.008;2023-09-19T09:46:14;313.27;;;110.82;;
4132;SDS011;2080;51.038;7.008;2023-09-19T09:48:44;274.57;;;38.37;;
4132;SDS011;2080;51.038;7.008;2023-09-19T09:51:37;326.48;;;136.32;;
4132;SDS011;2080;51.038;7.008;2023-09-19T09:56:51;336.02;;;139.48;;
4132;SDS011;2080;51.038;7.008;2023-09-19T09:59:21;319.50;;;121.50;;
4132;SDS011;2080;51.038;7.008;2023-09-19T10:01:49;297.33;;;78.90;;
4132;SDS011;2080;51.038;7.008;2023-09-19T10:04:36;314.65;;;98.57;;
4132;SDS011;2080;51.038;7.008;2023-09-19T10:07:09;306.20;;;84.53;;
4132;SDS011;2080;51.038;7.008;2023-09-19T10:09:45;263.50;;;26.48;;
4132;SDS011;2080;51.038;7.008;2023-09-19T10:12:13;293.08;;;69.75;;
4132;SDS011;2080;51.038;7.008;2023-09-19T10:14:43;318.30;;;109.43;;
4132;SDS011;2080;51.038;7.008;2023-09-19T10:17:12;265.02;;;23.73;;
4132;SDS011;2080;51.038;7.008;2023-09-19T10:22:13;297.65;;;80.55;;
4132;SDS011;2080;51.038;7.008;2023-09-19T10:24:42;274.02;;;26.75;;
4132;SDS011;2080;51.038;7.008;2023-09-19T10:27:11;266.00;;;25.67;;
4132;SDS011;2080;51.038;7.008;2023-09-19T10:29:41;263.08;;;22.10;;
4132;SDS011;2080;51.038;7.008;2023-09-19T10:32:15;273.33;;;43.10;;
4132;SDS011;2080;51.038;7.008;2023-09-19T10:34:44;287.85;;;56.25;;
4132;SDS011;2080;51.038;7.008;2023-09-19T10:37:12;284.58;;;54.30;;
4132;SDS011;2080;51.038;7.008;2023-09-19T10:39:41;307.57;;;89.60;;
4132;SDS011;2080;51.038;7.008;2023-09-19T10:42:11;309.48;;;101.85;;
4132;SDS011;2080;51.038;7.008;2023-09-19T10:44:42;290.55;;;46.17;;
4132;SDS011;2080;51.038;7.008;2023-09-19T10:47:13;263.08;;;25.00;;
4132;SDS011;2080;51.038;7.008;2023-09-19T10:49:44;280.98;;;56.95;;
4132;SDS011;2080;51.038;7.008;2023-09-19T10:52:14;291.70;;;63.90;;
4132;SDS011;2080;51.038;7.008;2023-09-19T10:54:50;264.75;;;23.42;;
4132;SDS011;2080;51.038;7.008;2023-09-19T10:57:20;259.45;;;14.32;;
4132;SDS011;2080;51.038;7.008;2023-09-19T11:00:05;266.70;;;24.40;;
4132;SDS011;2080;51.038;7.008;2023-09-19T11:03:35;266.88;;;18.73;;
4132;SDS011;2080;51.038;7.008;2023-09-19T11:05:43;264.37;;;12.07;;
4132;SDS011;2080;51.038;7.008;2023-09-19T11:11:43;258.63;;;19.70;;
4132;SDS011;2080;51.038;7.008;2023-09-19T11:30:53;261.83;;;22.67;;
4132;SDS011;2080;51.038;7.008;2023-09-19T11:33:27;255.17;;;18.80;;
4132;SDS011;2080;51.038;7.008;2023-09-19T11:36:11;253.70;;;14.02;;
4132;SDS011;2080;51.038;7.008;2023-09-19T11:43:49;266.42;;;12.18;;
4132;SDS011;2080;51.038;7.008;2023-09-19T11:49:26;256.20;;;13.48;;
4132;SDS011;2080;51.038;7.008;2023-09-19T11:51:59;256.63;;;10.85;;
4132;SDS011;2080;51.038;7.008;2023-09-19T11:54:26;256.53;;;14.20;;
4132;SDS011;2080;51.038;7.008;2023-09-19T11:56:56;270.95;;;29.13;;
4132;SDS011;2080;51.038;7.008;2023-09-19T12:04:58;267.55;;;33.13;;
4132;SDS011;2080;51.038;7.008;2023-09-19T12:07:26;261.77;;;19.20;;
4132;SDS011;2080;51.038;7.008;2023-09-19T12:10:02;260.30;;;23.07;;
4132;SDS011;2080;51.038;7.008;2023-09-19T12:12:30;256.25;;;11.82;;
4132;SDS011;2080;51.038;7.008;2023-09-19T12:15:00;261.63;;;11.85;;
4132;SDS011;2080;51.038;7.008;2023-09-19T12:20:08;259.17;;;16.17;;
4132;SDS011;2080;51.038;7.008;2023-09-19T12:22:44;258.88;;;10.95;;
4132;SDS011;2080;51.038;7.008;2023-09-19T12:25:11;264.03;;;20.20;;
4132;SDS011;2080;51.038;7.008;2023-09-19T12:27:47;268.95;;;12.27;;
4132;SDS011;2080;51.038;7.008;2023-09-19T12:30:27;265.95;;;12.07;;
4132;SDS011;2080;51.038;7.008;2023-09-19T12:32:53;259.20;;;20.90;;
4132;SDS011;2080;51.038;7.008;2023-09-19T12:35:29;255.18;;;16.48;;
4132;SDS011;2080;51.038;7.008;2023-09-19T12:37:59;261.98;;;12.23;;
4132;SDS011;2080;51.038;7.008;2023-09-19T12:40:28;265.75;;;16.27;;
4132;SDS011;2080;51.038;7.008;2023-09-19T12:43:00;263.73;;;27.60;;
4132;SDS011;2080;51.038;7.008;2023-09-19T12:45:27;257.38;;;13.38;;
4132;SDS011;2080;51.038;7.008;2023-09-19T12:53:56;264.58;;;34.80;;
4132;SDS011;2080;51.038;7.008;2023-09-19T12:56:22;260.63;;;12.38;;
4132;SDS011;2080;51.038;7.008;2023-09-19T12:58:57;291.47;;;73.00;;
4132;SDS011;2080;51.038;7.008;2023-09-19T13:01:28;264.40;;;30.60;;
4132;SDS011;2080;51.038;7.008;2023-09-19T13:06:45;257.75;;;10.52;;
4132;SDS011;2080;51.038;7.008;2023-09-19T13:09:16;265.77;;;26.98;;
4132;SDS011;2080;51.038;7.008;2023-09-19T13:11:42;265.02;;;16.88;;
4132;SDS011;2080;51.038;7.008;2023-09-19T13:14:25;276.45;;;39.90;;
4132;SDS011;2080;51.038;7.008;2023-09-19T13:17:08;260.70;;;25.55;;
4132;SDS011;2080;51.038;7.008;2023-09-19T13:19:43;264.65;;;34.80;;
4132;SDS011;2080;51.038;7.008;2023-09-19T13:22:42;276.48;;;44.90;;
4132;SDS011;2080;51.038;7.008;2023-09-19T13:25:18;264.48;;;35.92;;
4132;SDS011;2080;51.038;7.008;2023-09-19T13:30:14;260.63;;;29.13;;
4132;SDS011;2080;51.038;7.008;2023-09-19T13:32:42;272.27;;;56.58;;
4132;SDS011;2080;51.038;7.008;2023-09-19T13:35:19;270.92;;;59.47;;
4132;SDS011;2080;51.038;7.008;2023-09-19T13:37:44;269.15;;;74.82;;
4132;SDS011;2080;51.038;7.008;2023-09-19T13:40:17;280.88;;;68.72;;
4132;SDS011;2080;51.038;7.008;2023-09-19T13:42:43;270.02;;;69.57;;
4132;SDS011;2080;51.038;7.008;2023-09-19T13:45:08;264.65;;;47.50;;
4132;SDS011;2080;51.038;7.008;2023-09-19T13:47:38;264.92;;;40.75;;
4132;SDS011;2080;51.038;7.008;2023-09-19T13:50:06;264.97;;;46.27;;
4132;SDS011;2080;51.038;7.008;2023-09-19T13:52:32;264.45;;;41.92;;
4132;SDS011;2080;51.038;7.008;2023-09-19T13:54:58;267.52;;;46.00;;
4132;SDS011;2080;51.038;7.008;2023-09-19T13:57:31;267.30;;;46.38;;
4132;SDS011;2080;51.038;7.008;2023-09-19T13:59:58;298.52;;;111.45;;
4132;SDS011;2080;51.038;7.008;2023-09-19T14:02:26;276.73;;;62.80;;
4132;SDS011;2080;51.038;7.008;2023-09-19T14:04:51;263.35;;;40.33;;
4132;SDS011;2080;51.038;7.008;2023-09-19T14:07:18;262.88;;;34.85;;
4132;SDS011;2080;51.038;7.008;2023-09-19T14:09:45;253.05;;;17.25;;
4132;SDS011;2080;51.038;7.008;2023-09-19T14:12:13;252.98;;;15.18;;
4132;SDS011;2080;51.038;7.008;2023-09-19T14:14:39;256.13;;;16.88;;
4132;SDS011;2080;51.038;7.008;2023-09-19T14:17:04;260.60;;;22.38;;
4132;SDS011;2080;51.038;7.008;2023-09-19T14:19:31;256.77;;;26.98;;
4132;SDS011;2080;51.038;7.008;2023-09-19T14:21:58;292.47;;;86.60;;
4132;SDS011;2080;51.038;7.008;2023-09-19T14:24:34;258.30;;;11.98;;
4132;SDS011;2080;51.038;7.008;2023-09-19T14:27:00;264.45;;;34.53;;
4132;SDS011;2080;51.038;7.008;2023-09-19T14:29:25;263.83;;;26.43;;
4132;SDS011;2080;51.038;7.008;2023-09-19T14:31:53;254.83;;;10.20;;
4132;SDS011;2080;51.038;7.008;2023-09-19T14:34:22;253.10;;;10.35;;
4132;SDS011;2080;51.038;7.008;2023-09-19T14:36:48;265.67;;;26.60;;
4132;SDS011;2080;51.038;7.008;2023-09-19T14:39:14;255.70;;;15.00;;
4132;SDS011;2080;51.038;7.008;2023-09-19T14:41:46;249.25;;;9.40;;
4132;SDS011;2080;51.038;7.008;2023-09-19T14:44:12;254.32;;;10.38;;
4132;SDS011;2080;51.038;7.008;2023-09-19T14:46:38;254.25;;;10.32;;
4132;SDS011;2080;51.038;7.008;2023-09-19T14:49:04;252.02;;;10.20;;
4132;SDS011;2080;51.038;7.008;2023-09-19T14:51:30;258.67;;;10.70;;
4132;SDS011;2080;51.038;7.008;2023-09-19T14:53:58;256.23;;;9.90;;
4132;SDS011;2080;51.038;7.008;2023-09-19T14:56:26;254.65;;;10.10;;
4132;SDS011;2080;51.038;7.008;2023-09-19T14:58:58;260.67;;;9.45;;
4132;SDS011;2080;51.038;7.008;2023-09-19T15:01:23;250.75;;;9.10;;
4132;SDS011;2080;51.038;7.008;2023-09-19T15:03:51;253.80;;;9.40;;
4132;SDS011;2080;51.038;7.008;2023-09-19T15:06:20;255.32;;;11.13;;
4132;SDS011;2080;51.038;7.008;2023-09-19T15:08:46;261.25;;;26.45;;
4132;SDS011;2080;51.038;7.008;2023-09-19T15:11:16;251.50;;;9.20;;
4132;SDS011;2080;51.038;7.008;2023-09-19T15:13:46;250.95;;;8.13;;
4132;SDS011;2080;51.038;7.008;2023-09-19T15:16:12;250.68;;;8.80;;
4132;SDS011;2080;51.038;7.008;2023-09-19T15:18:43;251.77;;;8.75;;
4132;SDS011;2080;51.038;7.008;2023-09-19T15:21:12;251.63;;;8.45;;
4132;SDS011;2080;51.038;7.008;2023-09-19T15:23:47;252.10;;;10.30;;
4132;SDS011;2080;51.038;7.008;2023-09-19T15:26:13;252.88;;;8.70;;
4132;SDS011;2080;51.038;7.008;2023-09-19T15:28:45;255.65;;;9.65;;
4132;SDS011;2080;51.038;7.008;2023-09-19T15:31:13;255.27;;;10.73;;
4132;SDS011;2080;51.038;7.008;2023-09-19T15:33:39;254.68;;;10.82;;
4132;SDS011;2080;51.038;7.008;2023-09-19T15:36:05;252.60;;;11.30;;
4132;SDS011;2080;51.038;7.008;2023-09-19T15:41:31;251.67;;;9.37;;
4132;SDS011;2080;51.038;7.008;2023-09-19T15:43:59;256.80;;;11.27;;
4132;SDS011;2080;51.038;7.008;2023-09-19T15:46:26;256.67;;;10.30;;
4132;SDS011;2080;51.038;7.008;2023-09-19T15:48:52;255.75;;;9.98;;
4132;SDS011;2080;51.038;7.008;2023-09-19T15:51:18;254.77;;;9.35;;
4132;SDS011;2080;51.038;7.008;2023-09-19T15:53:54;254.30;;;10.05;;
4132;SDS011;2080;51.038;7.008;2023-09-19T15:56:30;252.87;;;9.50;;
4132;SDS011;2080;51.038;7.008;2023-09-19T15:58:58;258.50;;;9.63;;
4132;SDS011;2080;51.038;7.008;2023-09-19T16:01:23;254.33;;;10.20;;
4132;SDS011;2080;51.038;7.008;2023-09-19T16:03:50;255.70;;;11.30;;
4132;SDS011;2080;51.038;7.008;2023-09-19T16:06:26;261.00;;;13.68;;
4132;SDS011;2080;51.038;7.008;2023-09-19T16:08:59;259.90;;;11.30;;
4132;SDS011;2080;51.038;7.008;2023-09-19T16:11:26;260.75;;;10.48;;
4132;SDS011;2080;51.038;7.008;2023-09-19T16:14:00;254.03;;;10.13;;
4132;SDS011;2080;51.038;7.008;2023-09-19T16:16:26;258.83;;;12.23;;